Time;durP1;ratioP1;P1;durP2;ratioP2;P2;SDS_P1;SDS_P2;PMS_P1;PMS_P2;Temp;Humidity;BMP_temperature;BMP_pressure;BME280_temperature;BME280_humidity;BME280_pressure;Samples;Min_cycle;Max_cycle;Signal;HPM_P1;HPM_P2
2023/06/09 00:01:09;;;;;;;12.25;9.00;;;14.60;99.90;;;;;;7601485;19;20011;-78
2023/06/09 00:03:42;;;;;;;13.38;9.75;;;14.60;99.90;;;;;;7607440;19;20338;-77
2023/06/09 00:06:16;;;;;;;12.38;9.18;;;14.70;99.90;;;;;;7606435;19;20018;-76
2023/06/09 00:08:50;;;;;;;12.35;9.05;;;14.60;99.90;;;;;;7604127;19;20083;-78
2023/06/09 00:11:22;;;;;;;14.20;9.00;;;14.70;99.90;;;;;;7601827;19;21163;-80
2023/06/09 00:13:54;;;;;;;14.00;10.00;;;14.60;99.90;;;;;;7613049;19;20060;-78
2023/06/09 00:16:28;;;;;;;11.98;8.88;;;14.70;99.90;;;;;;7619032;19;20011;-78
2023/06/09 00:19:04;;;;;;;10.80;8.43;;;14.70;99.90;;;;;;7620059;19;20511;-78
2023/06/09 00:21:37;;;;;;;9.60;8.25;;;14.80;99.90;;;;;;7627163;19;20035;-78
2023/06/09 00:24:10;;;;;;;16.60;10.07;;;14.80;99.90;;;;;;7619448;19;20023;-78
2023/06/09 00:26:42;;;;;;;12.50;9.50;;;14.80;99.90;;;;;;7624167;19;20011;-77
2023/06/09 00:29:17;;;;;;;13.40;9.60;;;14.70;99.90;;;;;;7620939;19;20052;-78
2023/06/09 00:31:49;;;;;;;14.65;9.48;;;14.50;99.90;;;;;;7604788;19;20018;-77
2023/06/09 00:34:21;;;;;;;10.68;8.73;;;14.40;99.90;;;;;;7610463;19;20107;-77
2023/06/09 00:36:53;;;;;;;13.50;9.48;;;14.50;99.90;;;;;;7611657;19;20019;-78
2023/06/09 00:39:25;;;;;;;15.88;9.18;;;14.50;99.90;;;;;;7605521;19;20022;-77
2023/06/09 00:41:58;;;;;;;10.68;8.93;;;14.50;99.90;;;;;;7599520;19;21017;-78
2023/06/09 00:44:30;;;;;;;11.10;8.55;;;14.60;99.90;;;;;;7597592;19;20048;-77
2023/06/09 00:47:04;;;;;;;14.43;8.25;;;14.60;99.90;;;;;;7598683;19;20059;-81
2023/06/09 00:49:36;;;;;;;11.35;9.55;;;14.80;99.90;;;;;;7603304;19;20034;-77
2023/06/09 00:52:10;;;;;;;14.03;9.23;;;14.70;99.90;;;;;;7597650;19;20018;-77
2023/06/09 00:54:43;;;;;;;14.63;9.43;;;14.70;99.90;;;;;;7599395;19;20022;-80
2023/06/09 00:57:16;;;;;;;11.52;8.57;;;14.60;99.90;;;;;;7589850;19;20025;-78
2023/06/09 00:59:48;;;;;;;11.40;8.85;;;14.60;99.90;;;;;;7597544;19;20090;-78
2023/06/09 01:02:24;;;;;;;10.77;8.85;;;14.60;99.90;;;;;;7591894;19;20026;-77
2023/06/09 01:04:56;;;;;;;11.70;9.05;;;14.60;99.90;;;;;;7587521;19;20148;-78
2023/06/09 01:07:40;;;;;;;11.60;9.13;;;14.60;99.90;;;;;;7578133;19;20014;-78
2023/06/09 01:10:27;;;;;;;15.18;10.02;;;14.60;99.90;;;;;;7596187;19;20098;-77
2023/06/09 01:13:12;;;;;;;13.00;9.18;;;14.60;99.90;;;;;;7583705;19;20026;-80
2023/06/09 01:15:49;;;;;;;11.48;8.82;;;14.60;99.90;;;;;;7581252;19;21504;-82
2023/06/09 01:18:24;;;;;;;13.35;9.30;;;14.50;99.90;;;;;;7572380;19;20023;-79
2023/06/09 01:21:12;;;;;;;15.23;8.98;;;14.50;99.90;;;;;;7598166;19;20133;-81
2023/06/09 01:24:00;;;;;;;12.98;8.98;;;14.50;99.90;;;;;;7579037;19;20022;-79
2023/06/09 01:26:32;;;;;;;14.23;9.02;;;14.50;99.90;;;;;;7588922;19;20019;-83
2023/06/09 01:29:06;;;;;;;14.90;9.77;;;14.50;99.90;;;;;;7610878;19;20050;-82
2023/06/09 01:31:39;;;;;;;12.80;9.05;;;14.50;99.90;;;;;;7597054;19;20078;-79
2023/06/09 01:34:13;;;;;;;10.75;8.95;;;14.40;99.90;;;;;;7595665;19;20019;-79
2023/06/09 01:36:47;;;;;;;10.60;9.32;;;14.40;99.90;;;;;;7598749;19;20353;-78
2023/06/09 01:39:19;;;;;;;;;;;14.40;99.90;;;;;;7603431;19;20018;-79
2023/06/09 01:41:52;;;;;;;12.43;9.52;;;14.40;99.90;;;;;;7589545;19;19949;-78
2023/06/09 01:44:25;;;;;;;11.05;8.75;;;14.40;99.90;;;;;;7601916;19;20026;-78
2023/06/09 01:46:57;;;;;;;10.80;8.77;;;14.40;99.90;;;;;;7596411;19;20495;-78
2023/06/09 01:49:54;;;;;;;11.65;9.02;;;14.40;99.90;;;;;;7580171;19;21653;-78
2023/06/09 01:52:49;;;;;;;14.05;9.35;;;14.30;99.90;;;;;;7602709;19;20926;-79
2023/06/09 01:55:36;;;;;;;11.05;8.30;;;14.30;99.90;;;;;;7597987;19;20052;-77
2023/06/09 01:58:21;;;;;;;11.88;8.60;;;14.40;99.90;;;;;;7594045;19;20022;-78
2023/06/09 02:00:56;;;;;;;13.95;8.02;;;14.40;99.90;;;;;;7592517;19;20551;-80
2023/06/09 02:03:31;;;;;;;13.82;9.15;;;14.30;99.90;;;;;;7590950;19;20779;-77
2023/06/09 02:06:05;;;;;;;11.05;9.00;;;14.30;99.90;;;;;;7587152;19;20028;-78
2023/06/09 02:08:39;;;;;;;11.65;9.00;;;14.30;99.90;;;;;;7588746;19;20010;-78
2023/06/09 02:11:12;;;;;;;10.70;8.82;;;14.30;99.90;;;;;;7584440;19;20018;-77
2023/06/09 02:13:52;;;;;;;15.60;9.20;;;14.30;99.90;;;;;;7586032;19;20024;-78
2023/06/09 02:16:25;;;;;;;12.48;8.52;;;14.30;99.90;;;;;;7590233;19;20087;-78
2023/06/09 02:18:57;;;;;;;10.43;8.97;;;14.30;99.90;;;;;;7589117;19;20050;-79
2023/06/09 02:21:30;;;;;;;11.68;8.57;;;14.30;99.90;;;;;;7598332;19;21500;-80
2023/06/09 02:24:03;;;;;;;11.30;9.13;;;14.30;99.90;;;;;;7587729;19;20365;-80
2023/06/09 02:26:37;;;;;;;12.38;9.50;;;14.30;99.90;;;;;;7581779;19;20018;-80
2023/06/09 02:29:10;;;;;;;12.48;8.98;;;14.30;99.90;;;;;;7596153;19;20024;-80
2023/06/09 02:31:43;;;;;;;;;;;14.30;99.90;;;;;;7584666;19;20412;-80
2023/06/09 02:34:16;;;;;;;13.73;9.48;;;14.30;99.90;;;;;;7588753;19;20590;-79
2023/06/09 02:36:52;;;;;;;13.52;9.93;;;14.20;99.90;;;;;;7583109;19;20044;-77
2023/06/09 02:39:24;;;;;;;12.93;10.15;;;14.30;99.90;;;;;;7590319;19;20011;-77
2023/06/09 02:41:57;;;;;;;10.20;8.70;;;14.30;99.90;;;;;;7592857;19;20015;-79
2023/06/09 02:44:31;;;;;;;13.98;9.25;;;14.30;99.90;;;;;;7600626;19;20623;-81
2023/06/09 02:47:05;;;;;;;13.73;9.57;;;14.30;99.90;;;;;;7576452;19;20014;-79
2023/06/09 02:49:37;;;;;;;;;;;14.30;99.90;;;;;;7594121;19;20015;-77
2023/06/09 02:52:10;;;;;;;16.95;9.63;;;14.30;99.90;;;;;;7589259;19;19919;-80
2023/06/09 02:54:43;;;;;;;12.15;9.18;;;14.30;99.90;;;;;;7602078;19;20148;-80
2023/06/09 02:57:17;;;;;;;12.73;9.35;;;14.40;99.90;;;;;;7594363;19;20596;-80
2023/06/09 02:59:50;;;;;;;13.60;10.13;;;14.40;99.90;;;;;;7598115;19;20023;-80
2023/06/09 03:02:23;;;;;;;13.20;10.32;;;14.30;99.90;;;;;;7582069;19;20052;-78
2023/06/09 03:04:56;;;;;;;12.57;9.95;;;14.30;99.90;;;;;;7574596;19;20740;-80
2023/06/09 03:07:29;;;;;;;13.60;9.82;;;14.30;99.90;;;;;;7595581;19;20048;-81
2023/06/09 03:10:02;;;;;;;12.82;9.75;;;14.30;99.90;;;;;;7598831;19;20573;-81
2023/06/09 03:12:36;;;;;;;15.90;10.32;;;14.30;99.90;;;;;;7583413;19;20022;-78
2023/06/09 03:15:09;;;;;;;13.02;9.90;;;14.20;99.90;;;;;;7585118;19;20093;-80
2023/06/09 03:17:43;;;;;;;14.27;10.20;;;14.20;99.90;;;;;;7587896;19;20797;-81
2023/06/09 03:20:19;;;;;;;11.77;9.85;;;14.20;99.90;;;;;;7576497;19;20025;-78
2023/06/09 03:22:54;;;;;;;15.07;10.85;;;14.20;99.90;;;;;;7556777;19;21114;-79
2023/06/09 03:25:31;;;;;;;13.50;9.75;;;14.10;99.90;;;;;;7545660;19;20033;-79
2023/06/09 03:28:03;;;;;;;15.10;11.35;;;14.10;99.90;;;;;;7555452;19;22306;-77
2023/06/09 03:30:38;;;;;;;15.77;11.68;;;14.10;99.90;;;;;;7580397;19;20014;-77
2023/06/09 03:33:11;;;;;;;20.83;11.85;;;14.10;99.90;;;;;;7569683;19;20026;-79
2023/06/09 03:35:44;;;;;;;15.27;11.88;;;14.10;99.90;;;;;;7584429;19;20018;-80
2023/06/09 03:38:17;;;;;;;14.73;11.15;;;14.10;99.90;;;;;;7588438;19;20510;-81
2023/06/09 03:40:50;;;;;;;15.18;11.23;;;14.10;99.90;;;;;;7593724;19;20352;-78
2023/06/09 03:43:25;;;;;;;16.40;12.40;;;14.00;99.90;;;;;;7583596;19;20029;-78
2023/06/09 03:45:57;;;;;;;21.63;12.60;;;14.00;99.90;;;;;;7591968;19;20010;-79
2023/06/09 03:48:29;;;;;;;14.88;11.27;;;13.90;99.90;;;;;;7582096;19;20042;-79
2023/06/09 03:51:02;;;;;;;17.52;10.68;;;14.00;99.90;;;;;;7574061;19;21037;-77
2023/06/09 03:53:34;;;;;;;14.00;11.05;;;14.00;99.90;;;;;;7578751;19;20097;-78
2023/06/09 03:56:07;;;;;;;16.63;10.00;;;14.00;99.90;;;;;;7589920;19;20089;-79
2023/06/09 03:58:39;;;;;;;15.55;9.85;;;14.00;99.90;;;;;;7573843;19;20017;-78
2023/06/09 04:01:12;;;;;;;13.57;9.63;;;14.00;99.90;;;;;;7580584;19;20014;-78
2023/06/09 04:03:44;;;;;;;16.92;10.75;;;14.00;99.90;;;;;;7585696;19;20031;-79
2023/06/09 04:06:17;;;;;;;13.80;10.10;;;14.00;99.90;;;;;;7588293;19;20018;-78
2023/06/09 04:08:51;;;;;;;16.48;11.25;;;14.00;99.90;;;;;;7592297;19;20023;-78
2023/06/09 04:11:24;;;;;;;14.70;10.82;;;13.90;99.90;;;;;;7584656;19;20527;-80
2023/06/09 04:13:56;;;;;;;19.33;10.93;;;13.90;99.90;;;;;;7589406;19;21190;-79
2023/06/09 04:16:29;;;;;;;11.83;9.53;;;13.90;99.90;;;;;;7580364;19;20014;-80
2023/06/09 04:19:01;;;;;;;14.13;10.30;;;13.90;99.90;;;;;;7593415;19;20026;-78
2023/06/09 04:21:35;;;;;;;17.10;11.13;;;14.00;99.90;;;;;;7586539;19;20115;-79
2023/06/09 04:24:09;;;;;;;15.73;10.68;;;14.00;99.90;;;;;;7591871;19;20049;-78
2023/06/09 04:26:43;;;;;;;13.18;10.68;;;14.00;99.90;;;;;;7568173;19;21071;-77
2023/06/09 04:29:17;;;;;;;15.27;10.85;;;14.00;99.90;;;;;;7584361;19;20074;-79
2023/06/09 04:31:53;;;;;;;18.25;11.48;;;14.00;99.90;;;;;;7561364;19;20018;-80
2023/06/09 04:34:29;;;;;;;14.45;10.82;;;14.00;99.90;;;;;;7573958;19;20025;-77
2023/06/09 04:37:01;;;;;;;13.95;10.75;;;14.10;99.90;;;;;;7580530;19;20014;-79
2023/06/09 04:39:33;;;;;;;16.63;12.13;;;14.20;99.90;;;;;;7590192;19;20426;-77
2023/06/09 04:42:07;;;;;;;18.98;11.95;;;14.20;99.90;;;;;;7593461;19;21261;-78
2023/06/09 04:44:40;;;;;;;19.33;13.00;;;14.20;99.90;;;;;;7578657;19;20101;-80
2023/06/09 04:47:18;;;;;;;20.50;14.60;;;14.20;99.90;;;;;;7571948;19;20011;-77
2023/06/09 04:49:53;;;;;;;16.33;12.40;;;14.20;99.90;;;;;;7582113;19;20015;-76
2023/06/09 04:52:26;;;;;;;20.92;12.20;;;14.30;99.90;;;;;;7580539;19;20052;-78
2023/06/09 04:54:59;;;;;;;21.83;15.50;;;14.40;99.90;;;;;;7564586;19;20020;-79
2023/06/09 04:57:32;;;;;;;20.20;12.30;;;14.40;99.90;;;;;;7569590;19;20561;-78
2023/06/09 05:00:07;;;;;;;19.92;13.93;;;14.40;99.90;;;;;;7551868;19;20022;-79
2023/06/09 05:02:41;;;;;;;18.50;13.45;;;14.50;99.90;;;;;;7575962;19;20015;-81
2023/06/09 05:05:15;;;;;;;21.67;14.50;;;14.50;99.90;;;;;;7594936;19;20373;-78
2023/06/09 05:07:48;;;;;;;16.05;12.90;;;14.50;99.90;;;;;;7555954;19;20015;-80
2023/06/09 05:10:21;;;;;;;18.10;13.00;;;14.50;99.90;;;;;;7571076;19;20662;-79
2023/06/09 05:12:54;;;;;;;21.10;15.10;;;14.60;99.90;;;;;;7572910;19;20014;-79
2023/06/09 05:15:27;;;;;;;20.23;14.90;;;14.60;99.90;;;;;;7571542;19;20391;-78
2023/06/09 05:17:59;;;;;;;24.67;16.03;;;14.70;99.90;;;;;;7589466;19;20022;-78
2023/06/09 05:20:33;;;;;;;24.80;17.17;;;;;;;;;;7587025;19;20018;-78
2023/06/09 05:23:07;;;;;;;23.03;16.97;;;14.80;99.90;;;;;;7575909;19;20953;-79
2023/06/09 05:25:40;;;;;;;26.10;17.13;;;14.90;99.90;;;;;;7563343;19;20029;-79
2023/06/09 05:28:12;;;;;;;24.98;16.92;;;14.90;99.90;;;;;;7576619;19;20941;-77
2023/06/09 05:30:45;;;;;;;25.98;17.05;;;15.00;99.90;;;;;;7572252;19;20050;-77
2023/06/09 05:33:18;;;;;;;23.90;17.15;;;;;;;;;;7569771;19;20035;-79
2023/06/09 05:35:51;;;;;;;23.53;17.83;;;;;;;;;;7562307;19;20599;-77
2023/06/09 05:38:25;;;;;;;25.13;18.30;;;;;;;;;;7580930;19;20011;-81
2023/06/09 05:40:58;;;;;;;26.50;18.93;;;15.20;99.90;;;;;;7574512;19;20785;-79
2023/06/09 05:43:30;;;;;;;26.52;18.00;;;15.50;99.90;;;;;;7568695;19;20611;-78
2023/06/09 05:46:02;;;;;;;22.90;16.48;;;15.40;99.90;;;;;;7571807;19;20023;-78
2023/06/09 05:48:34;;;;;;;24.33;18.00;;;15.50;99.90;;;;;;7575569;19;20558;-78
2023/06/09 05:51:07;;;;;;;24.98;17.60;;;15.60;99.90;;;;;;7565717;19;20033;-78
2023/06/09 05:53:39;;;;;;;25.27;17.15;;;15.80;99.90;;;;;;7566604;19;20011;-82
2023/06/09 05:56:15;;;;;;;21.73;16.73;;;;;;;;;;7575136;19;20052;-79
2023/06/09 05:58:50;;;;;;;23.33;16.55;;;;;;;;;;7560691;19;20049;-76
2023/06/09 06:01:23;;;;;;;20.20;15.77;;;16.00;99.90;;;;;;7567220;19;20134;-78
2023/06/09 06:03:57;;;;;;;20.20;15.85;;;;;;;;;;7572208;19;20921;-78
2023/06/09 06:06:30;;;;;;;21.63;14.77;;;;;;;;;;7573428;19;20014;-79
2023/06/09 06:09:03;;;;;;;20.45;14.95;;;;;;;;;;7553790;19;20026;-79
2023/06/09 06:11:40;;;;;;;21.95;14.95;;;;;;;;;;7529554;19;20015;-79
2023/06/09 06:14:13;;;;;;;19.60;15.70;;;;;;;;;;7561240;19;21802;-80
2023/06/09 06:16:46;;;;;;;18.63;14.23;;;;;;;;;;7571428;19;20129;-80
2023/06/09 06:19:18;;;;;;;19.63;15.15;;;;;;;;;;7578837;19;20010;-84
2023/06/09 06:21:52;;;;;;;;;;;;;;;;;;7568718;19;20006;-85
2023/06/09 06:24:24;;;;;;;18.65;14.35;;;;;;;;;;7572586;19;19923;-82
2023/06/09 06:26:57;;;;;;;17.60;13.85;;;;;;;;;;7578276;19;20018;-83
2023/06/09 06:29:30;;;;;;;22.60;14.50;;;;;;;;;;7539510;19;22717;-82
2023/06/09 06:32:03;;;;;;;17.48;13.80;;;;;;;;;;7514615;19;20022;-81
2023/06/09 06:34:36;;;;;;;16.45;12.82;;;;;;;;;;7484627;19;20045;-80
2023/06/09 06:37:12;;;;;;;16.25;11.77;;;;;;;;;;7556500;19;20017;-80
2023/06/09 06:39:45;;;;;;;16.57;13.43;;;;;;;;;;7517870;19;20026;-83
2023/06/09 06:42:18;;;;;;;17.00;13.35;;;;;;;;;;7524742;19;20757;-81
2023/06/09 06:45:06;;;;;;;16.20;13.02;;;;;;;;;;7520813;19;20026;-81
2023/06/09 06:47:41;;;;;;;17.83;13.50;;;;;;;;;;7550453;19;20534;-82
2023/06/09 06:50:14;;;;;;;18.00;12.88;;;;;;;;;;7587990;19;20017;-80
2023/06/09 06:55:40;;;;;;;15.25;12.30;;;;;;;;;;7547796;19;20010;-82
2023/06/09 06:58:14;;;;;;;17.08;13.15;;;;;;;;;;7578230;19;20345;-81
2023/06/09 07:00:47;;;;;;;16.67;11.98;;;;;;;;;;7564247;19;20013;-81
2023/06/09 07:03:20;;;;;;;14.15;11.20;;;;;;;;;;7589609;19;20023;-80
2023/06/09 07:05:56;;;;;;;16.57;11.87;;;;;;;;;;7557144;19;20014;-81
2023/06/09 07:08:29;;;;;;;18.73;11.48;;;;;;;;;;7574461;19;20029;-84
2023/06/09 07:11:04;;;;;;;12.80;10.33;;;;;;;;;;7576881;19;20457;-84
2023/06/09 07:13:38;;;;;;;12.30;9.85;;;;;;;;;;7570341;19;20015;-86
2023/06/09 07:16:10;;;;;;;13.15;9.48;;;;;;;;;;7564124;19;20045;-81
2023/06/09 07:18:43;;;;;;;15.57;10.05;;;;;;;;;;7595009;19;20022;-83
2023/06/09 07:21:17;;;;;;;12.38;9.82;;;;;;;;;;7586449;19;20796;-83
2023/06/09 07:23:49;;;;;;;13.23;9.25;;;;;;;;;;7575214;19;20082;-84
2023/06/09 07:26:22;;;;;;;10.73;8.77;;;;;;;;;;7528167;19;20384;-82
2023/06/09 07:28:57;;;;;;;10.88;8.35;;;;;;;;;;7518120;19;21160;-80
2023/06/09 07:31:30;;;;;;;10.98;9.32;;;;;;;;;;7447148;19;23252;-82
2023/06/09 07:34:12;;;;;;;12.05;9.57;;;;;;;;;;7522401;19;23923;-79
2023/06/09 07:36:50;;;;;;;10.70;8.80;;;;;;;;;;7569553;19;20019;-79
2023/06/09 07:39:22;;;;;;;11.40;7.65;;;;;;;;;;7583244;19;20382;-82
2023/06/09 07:41:55;;;;;;;11.37;9.07;;;;;;;;;;7584514;19;20022;-78
2023/06/09 07:44:28;;;;;;;12.93;8.00;;;;;;;;;;7537831;19;21244;-76
2023/06/09 07:47:01;;;;;;;10.85;7.32;;;;;;;;;;7507928;19;20014;-78
2023/06/09 07:49:33;;;;;;;9.83;7.43;;;;;;;;;;7554564;19;20013;-80
2023/06/09 07:52:06;;;;;;;10.20;7.63;;;;;;;;;;7546895;19;20053;-78
2023/06/09 07:55:06;;;;;;;8.60;7.03;;;;;;;;;;7536239;19;21091;-75
2023/06/09 07:57:46;;;;;;;9.45;7.32;;;;;;;;;;7521168;19;20021;-75
2023/06/09 08:00:19;;;;;;;9.50;6.53;;;;;;;;;;7559835;19;20490;-76
2023/06/09 08:02:53;;;;;;;10.10;7.95;;;;;;;;;;7571821;19;20089;-74
2023/06/09 08:05:31;;;;;;;6.40;5.53;;;;;;;;;;7570718;19;20038;-75
2023/06/09 08:08:08;;;;;;;7.28;5.25;;;;;;;;;;7563832;19;20034;-75
2023/06/09 08:10:41;;;;;;;7.38;4.63;;;;;;;;;;7566575;19;20015;-75
2023/06/09 08:13:15;;;;;;;6.57;4.97;;;;;;;;;;7590714;19;20062;-75
2023/06/09 08:15:48;;;;;;;6.53;5.00;;;;;;;;;;7579098;19;20307;-75
2023/06/09 08:18:20;;;;;;;5.18;4.68;;;;;;;;;;7561725;19;20018;-75
2023/06/09 08:20:53;;;;;;;5.10;4.53;;;;;;;;;;7571254;19;20018;-75
2023/06/09 08:23:25;;;;;;;7.03;5.07;;;;;;;;;;7578663;19;20554;-76
2023/06/09 08:25:58;;;;;;;5.10;4.55;;;;;;;;;;7569826;19;21175;-76
2023/06/09 08:28:31;;;;;;;5.35;4.55;;;;;;;;;;7561091;19;20631;-74
2023/06/09 08:31:04;;;;;;;4.97;4.43;;;;;;;;;;7533666;19;20066;-74
2023/06/09 08:33:36;;;;;;;6.53;4.10;;;;;;;;;;7571417;19;23774;-74
2023/06/09 08:36:09;;;;;;;5.00;4.05;;;;;;;;;;7577782;19;20022;-74
2023/06/09 08:38:42;;;;;;;4.80;4.30;;;;;;;;;;7570919;19;20021;-74
2023/06/09 08:41:15;;;;;;;3.80;3.50;;;;;;;;;;7547952;19;20678;-76
2023/06/09 08:43:48;;;;;;;4.50;3.40;;;16.40;99.90;;;;;;7552733;19;20014;-74
2023/06/09 08:46:22;;;;;;;4.22;3.25;;;21.70;99.90;;;;;;7577976;19;20014;-74
2023/06/09 08:48:59;;;;;;;7.10;3.85;;;21.60;99.90;;;;;;7553180;19;20545;-75
2023/06/09 08:51:32;;;;;;;3.97;3.40;;;21.70;99.90;;;;;;7564467;19;20555;-75
2023/06/09 08:54:06;;;;;;;5.65;3.72;;;21.60;98.00;;;;;;7566924;19;20015;-75
2023/06/09 08:56:40;;;;;;;4.05;3.28;;;21.70;98.10;;;;;;7574965;19;20010;-75
2023/06/09 08:59:15;;;;;;;5.18;3.50;;;21.80;96.70;;;;;;7541222;19;20650;-75
2023/06/09 09:01:52;;;;;;;4.90;4.40;;;21.80;97.00;;;;;;7555172;19;20019;-74
2023/06/09 09:04:25;;;;;;;5.93;4.47;;;21.70;98.00;;;;;;7544041;19;20061;-74
2023/06/09 09:07:02;;;;;;;4.57;4.13;;;21.70;98.90;;;;;;7540361;19;20097;-74
2023/06/09 09:09:35;;;;;;;3.75;3.42;;;21.70;98.40;;;;;;7496206;19;20323;-76
2023/06/09 09:12:12;;;;;;;4.10;3.70;;;21.90;98.00;;;;;;7540349;19;20026;-74
2023/06/09 09:14:47;;;;;;;4.57;4.03;;;22.00;97.60;;;;;;7503163;19;21182;-76
2023/06/09 09:17:20;;;;;;;6.63;4.40;;;22.00;96.10;;;;;;7538436;19;20058;-74
2023/06/09 09:19:54;;;;;;;4.28;3.88;;;22.00;97.30;;;;;;7541584;19;20437;-74
2023/06/09 09:22:27;;;;;;;6.40;4.45;;;22.10;97.60;;;;;;7581002;19;20019;-74
2023/06/09 09:25:00;;;;;;;6.25;4.28;;;22.20;95.70;;;;;;7598766;19;20014;-75
2023/06/09 09:27:32;;;;;;;4.45;4.03;;;22.10;95.90;;;;;;7604823;19;20612;-75
2023/06/09 09:30:05;;;;;;;5.57;3.83;;;22.30;95.90;;;;;;7596991;19;20422;-76
2023/06/09 09:32:38;;;;;;;;;;;22.30;96.40;;;;;;7596057;19;20385;-73
2023/06/09 09:35:11;;;;;;;5.05;4.55;;;;;;;;;;7591653;19;19919;-75
2023/06/09 09:37:43;;;;;;;7.68;4.50;;;;;;;;;;7591795;19;20050;-76
2023/06/09 09:40:17;;;;;;;5.00;4.40;;;;;;;;;;7593490;19;20033;-76
2023/06/09 09:42:51;;;;;;;8.10;4.55;;;;;;;;;;7599899;19;20015;-76
2023/06/09 09:45:29;;;;;;;5.90;4.75;;;;;;;;;;7603780;19;20379;-76
2023/06/09 09:48:09;;;;;;;4.90;4.40;;;;;;;;;;7594819;19;20078;-76
2023/06/09 09:50:43;;;;;;;7.78;4.35;;;;;;;;;;7603254;19;21060;-75
2023/06/09 09:53:16;;;;;;;4.88;4.47;;;;;;;;;;7600057;19;20067;-76
2023/06/09 09:55:51;;;;;;;7.22;5.13;;;22.40;95.90;;;;;;7599644;19;20086;-75
2023/06/09 09:58:31;;;;;;;5.30;4.80;;;23.20;94.70;;;;;;7603397;19;20045;-76
2023/06/09 10:01:06;;;;;;;7.80;4.50;;;23.20;93.80;;;;;;7597635;19;20014;-74
2023/06/09 10:03:41;;;;;;;5.10;4.60;;;23.00;94.50;;;;;;7600381;19;20019;-75
2023/06/09 10:06:18;;;;;;;7.15;4.45;;;22.90;93.60;;;;;;7601412;19;20424;-75
2023/06/09 10:08:52;;;;;;;5.78;4.40;;;22.80;93.40;;;;;;7597409;19;20058;-75
2023/06/09 10:11:29;;;;;;;;;;;22.90;93.20;;;;;;7600364;19;20623;-75
2023/06/09 10:14:01;;;;;;;5.13;4.60;;;23.10;93.60;;;;;;7596219;19;19923;-76
2023/06/09 10:16:35;;;;;;;5.95;4.53;;;23.30;94.10;;;;;;7602723;19;20477;-75
2023/06/09 10:19:08;;;;;;;6.28;4.60;;;;;;;;;;7598557;19;20033;-75
2023/06/09 10:21:42;;;;;;;4.50;4.10;;;;;;;;;;7602106;19;21487;-75
2023/06/09 10:24:17;;;;;;;7.40;4.70;;;;;;;;;;7595777;19;20026;-75
2023/06/09 10:26:51;;;;;;;4.30;3.90;;;;;;;;;;7599149;19;20018;-75
2023/06/09 10:29:25;;;;;;;6.72;4.63;;;23.40;92.20;;;;;;7597638;19;20014;-76
2023/06/09 10:31:57;;;;;;;;;;;;;;;;;;7598060;19;20023;-75
2023/06/09 10:34:34;;;;;;;4.88;4.20;;;25.40;87.50;;;;;;7599277;19;19934;-75
2023/06/09 10:37:07;;;;;;;5.82;4.45;;;25.60;83.00;;;;;;7597191;19;20494;-76
2023/06/09 10:39:49;;;;;;;4.97;4.20;;;;;;;;;;7604156;19;20378;-76
2023/06/09 10:42:31;;;;;;;5.18;4.25;;;;;;;;;;7600568;19;20294;-76
2023/06/09 10:45:14;;;;;;;4.40;4.00;;;;;;;;;;7595376;19;20078;-75
2023/06/09 10:47:48;;;;;;;4.65;4.20;;;25.30;84.60;;;;;;7600345;19;20136;-76
2023/06/09 10:50:32;;;;;;;5.38;4.05;;;26.70;74.90;;;;;;7594786;19;20086;-76
2023/06/09 10:53:13;;;;;;;;;;;26.30;75.50;;;;;;7591915;19;20097;-73
2023/06/09 10:55:46;;;;;;;5.38;4.00;;;26.30;75.40;;;;;;7602854;19;20861;-76
2023/06/09 10:58:36;;;;;;;7.28;4.40;;;26.40;73.30;;;;;;7596936;19;20642;-75
2023/06/09 11:01:09;;;;;;;4.72;4.22;;;26.60;73.10;;;;;;7598041;19;21035;-76
2023/06/09 11:03:41;;;;;;;4.53;4.13;;;26.90;72.00;;;;;;7601243;19;20018;-76
2023/06/09 11:06:14;;;;;;;4.75;3.70;;;26.80;71.10;;;;;;7596656;19;20507;-75
2023/06/09 11:09:01;;;;;;;6.07;4.35;;;;;;;;;;7600669;19;20373;-74
2023/06/09 11:11:48;;;;;;;5.18;4.38;;;;;;;;;;7597229;19;20030;-73
2023/06/09 11:14:39;;;;;;;4.80;4.38;;;;;;;;;;7592451;19;20010;-75
2023/06/09 11:17:25;;;;;;;79.03;43.63;;;;;;;;;;7594239;19;20022;-74
2023/06/09 11:20:28;;;;;;;5.28;4.78;;;;;;;;;;7594030;19;20074;-74
2023/06/09 11:23:03;;;;;;;188.70;125.22;;;27.00;73.30;;;;;;7601442;19;20018;-73
2023/06/09 11:25:37;;;;;;;10.10;8.43;;;27.80;69.50;;;;;;7599567;19;20493;-74
2023/06/09 11:28:12;;;;;;;16.77;11.63;;;27.90;66.40;;;;;;7598887;19;20019;-73
2023/06/09 11:31:04;;;;;;;11.70;8.13;;;28.00;67.60;;;;;;7595712;19;20036;-74
2023/06/09 11:33:53;;;;;;;7.57;4.05;;;27.70;65.30;;;;;;7599176;19;20648;-74
2023/06/09 11:36:27;;;;;;;5.35;3.97;;;27.50;66.90;;;;;;7609588;19;20034;-73
2023/06/09 11:39:05;;;;;;;4.20;3.70;;;27.60;63.70;;;;;;7594398;19;20014;-74
2023/06/09 11:41:37;;;;;;;7.53;3.90;;;27.70;63.90;;;;;;7601351;19;20021;-73
2023/06/09 11:44:10;;;;;;;4.50;4.10;;;27.40;63.20;;;;;;7599323;19;20026;-73
2023/06/09 11:46:42;;;;;;;6.65;4.10;;;27.80;66.60;;;;;;7592509;19;20279;-74
2023/06/09 11:49:22;;;;;;;3.83;3.50;;;28.20;63.10;;;;;;7595413;19;20021;-75
2023/06/09 11:51:59;;;;;;;4.57;3.78;;;28.50;61.70;;;;;;7599575;19;20018;-73
2023/06/09 11:54:46;;;;;;;5.97;3.70;;;28.60;60.10;;;;;;7593934;19;20033;-74
2023/06/09 11:57:18;;;;;;;5.15;4.05;;;28.60;60.50;;;;;;7595865;19;20086;-74
2023/06/09 11:59:52;;;;;;;4.25;3.85;;;28.50;60.90;;;;;;7594627;19;20034;-73
2023/06/09 12:02:26;;;;;;;7.65;3.97;;;28.20;60.40;;;;;;7592879;19;20044;-74
2023/06/09 12:04:59;;;;;;;7.78;4.70;;;28.10;60.00;;;;;;7595483;19;20026;-74
2023/06/09 12:07:32;;;;;;;4.63;4.18;;;27.50;59.90;;;;;;7597354;19;20515;-74
2023/06/09 12:10:05;;;;;;;6.72;3.80;;;27.20;62.20;;;;;;7597009;19;20312;-74
2023/06/09 12:12:52;;;;;;;5.57;3.92;;;27.40;62.80;;;;;;7598895;19;20041;-74
2023/06/09 12:15:28;;;;;;;4.57;4.10;;;27.80;60.20;;;;;;7594091;19;20513;-74
2023/06/09 12:18:02;;;;;;;7.35;4.18;;;27.90;59.60;;;;;;7599370;19;20945;-74
2023/06/09 12:20:36;;;;;;;4.47;4.07;;;28.10;59.20;;;;;;7596792;19;20140;-74
2023/06/09 12:23:12;;;;;;;5.15;4.03;;;28.20;59.60;;;;;;7596250;19;20025;-73
2023/06/09 12:25:47;;;;;;;5.28;4.20;;;28.50;57.30;;;;;;7599660;19;20018;-74
2023/06/09 12:28:26;;;;;;;5.70;4.10;;;28.60;57.60;;;;;;7603224;19;20007;-74
2023/06/09 12:31:10;;;;;;;5.20;4.07;;;28.70;57.00;;;;;;7591719;19;20726;-73
2023/06/09 12:33:47;;;;;;;5.10;4.30;;;28.60;55.00;;;;;;7593872;19;20102;-75
2023/06/09 12:36:20;;;;;;;8.32;4.30;;;28.50;56.20;;;;;;7601427;19;22235;-75
2023/06/09 12:38:53;;;;;;;6.30;4.40;;;28.70;56.80;;;;;;7597398;19;20093;-75
2023/06/09 12:41:26;;;;;;;5.60;4.50;;;28.80;55.50;;;;;;7600431;19;20018;-74
2023/06/09 12:43:59;;;;;;;5.38;3.95;;;28.60;55.30;;;;;;7599701;19;20505;-75
2023/06/09 12:46:35;;;;;;;;;;;28.70;56.70;;;;;;7596769;19;20044;-74
2023/06/09 12:49:08;;;;;;;7.43;4.78;;;28.70;56.00;;;;;;7592915;19;19953;-74
2023/06/09 12:51:43;;;;;;;7.15;4.53;;;28.40;55.60;;;;;;7600757;19;20241;-74
2023/06/09 12:54:15;;;;;;;4.38;3.90;;;28.60;56.50;;;;;;7594574;19;20015;-75
2023/06/09 12:56:47;;;;;;;5.57;4.27;;;28.90;56.20;;;;;;7596966;19;20010;-74
2023/06/09 12:59:20;;;;;;;5.47;4.20;;;29.40;55.30;;;;;;7596270;19;20093;-74
2023/06/09 13:01:53;;;;;;;4.55;4.10;;;29.70;56.30;;;;;;7594312;19;20440;-74
2023/06/09 13:04:25;;;;;;;5.70;4.63;;;30.10;54.60;;;;;;7592320;19;20025;-75
2023/06/09 13:06:58;;;;;;;6.60;4.10;;;30.20;54.10;;;;;;7591462;19;20383;-74
2023/06/09 13:09:30;;;;;;;8.47;4.30;;;30.30;54.20;;;;;;7593047;19;20619;-75
2023/06/09 13:12:02;;;;;;;4.97;4.47;;;30.30;53.00;;;;;;7595257;19;20025;-75
2023/06/09 13:14:35;;;;;;;;;;;30.20;53.10;;;;;;7598607;19;20447;-75
2023/06/09 13:17:07;;;;;;;4.40;4.00;;;30.30;52.70;;;;;;7591669;19;19933;-76
2023/06/09 13:19:40;;;;;;;4.95;4.45;;;30.30;51.70;;;;;;7602047;19;20018;-75
2023/06/09 13:22:12;;;;;;;5.57;4.47;;;30.50;52.00;;;;;;7601247;19;20501;-75
2023/06/09 13:24:45;;;;;;;4.72;4.28;;;30.50;52.60;;;;;;7605157;19;20127;-75
2023/06/09 13:27:17;;;;;;;6.47;4.65;;;30.50;51.50;;;;;;7602157;19;20025;-75
2023/06/09 13:29:49;;;;;;;4.78;4.20;;;30.30;51.20;;;;;;7609211;19;20683;-75
2023/06/09 13:32:22;;;;;;;6.90;4.50;;;30.60;52.10;;;;;;7601786;19;20576;-74
2023/06/09 13:34:54;;;;;;;5.55;4.88;;;30.40;51.20;;;;;;7607727;19;20150;-75
2023/06/09 13:37:27;;;;;;;5.35;4.20;;;29.80;50.60;;;;;;7603450;19;20026;-75
2023/06/09 13:39:59;;;;;;;6.97;4.38;;;29.90;51.90;;;;;;7604399;19;20017;-74
2023/06/09 13:42:32;;;;;;;5.82;4.55;;;29.90;51.10;;;;;;7602689;19;20019;-75
2023/06/09 13:45:05;;;;;;;6.73;4.53;;;30.30;51.90;;;;;;7603532;19;20425;-75
2023/06/09 13:47:38;;;;;;;6.80;4.40;;;30.20;49.40;;;;;;7602949;19;20029;-75
2023/06/09 13:50:11;;;;;;;;;;;30.40;50.50;;;;;;7601808;19;20026;-75
2023/06/09 13:52:43;;;;;;;5.60;4.50;;;30.60;50.50;;;;;;7605404;19;19933;-74